メインページ
METAR-TAF:

METAR-TAF

空港 :

ホニアラ国際空港

ホニアラ, ガダルカナル島, ソロモン諸島

緯度: 09-25S, 経度: 160-03E, 海抜: 8m

現時点の気象観測

当レポートは23分前の22:00(UTC)に作成
南/南東の風 2kt
気温 27°C
湿度 89%
気圧 1012 hPa
視程10km以上
高度1700ftの雲はほとんどない
高度10000ftの千切れ雲あり

METAR: AGGH 202200Z 16002KT 9999 FEW017 BKN100 27/25 Q1012

時間: 09:23 (22:23 UTC)

予報

当レポートは4時間23分前の18:00(UTC)に作成
予報は20日の 18時(UTC)から 21日の 18時(UTC)まで有効
変向風 3kt
視程10km以上
高度1600ftの雲はほとんどない
高度2800ftの千切れ雲あり
弱いにわか雨
20日の 2200時(UTC)から
東/北東の風 12kt
視程: 1009m
高度1900ftの雲は散在している
高度1600ftの千切れ雲あり
(弱い) にわか雨, 霧雨, にわか雨

TAF: AGGH 201800Z 2018/2118 VRB03KT 9999 -SHRA FEW016 BKN028 FM202200 07012KT 9999 -SHDZ SCT019 INTER 2018/2103 5000 SHRA BKN016 T 23 27 30 31 Q 1009 1011 1011 1009

4,000以上の空港の気象観測と天気予報(METAR報とTAF報)

利用可能な観測所は地図上に黄色い丸と赤い丸で示す。

丸の上にカーソルを重ねると観測所名を参照できる。

次にクリックすると気象観測と天気予報を参照できる。

マップの切り替え:黒色「×」印の緑ボタンをクリックして拡大、「-」印の緑ボタンをクリックして縮小、緑色の三角印をクリックして隣りの地図に切り替え


METAR-TAF: